• Join FlightAware (Why Join?)
  • Login
  • US Flag 
01:47PM EDT


 

Airport Tracker/Info


-or-


 

Live Flight TrackerFlight Track Log ✈ MTN8305 ✈ 14-May-2013 ✈ KEWR - KBWI

Flight Track Log - Related Links

Times and Time Zones

All times are in EDT time to prevent confusion due to time zone crossing. See the MTN8305 flight status page for this flight to view local times or setup timezone preferences in your user account.

Time Position Orientation Groundspeed Altitude Reporting Facility
EDT Latitude Longitude Course Direction KTS MPH feet Rate Location/Type
04:16AM 40.7000 -74.1833 270° West 99 114 1,200  Level New York TRACON
04:17AM 40.7000 -74.2167 270° West 104 120 2,300 1,080 Climbing New York TRACON
04:18AM 40.6833 -74.2500 237° Southwest 109 125 3,400 840 Climbing New York TRACON
04:19AM 40.6833 -74.3000 270° West 129 148 4,000 300 Climbing New York TRACON
04:20AM 40.6667 -74.3500 246° West 157 181 4,000  Level New York TRACON
04:21AM 40.6333 -74.3931 270° West  Level FlightAware Approximate
04:22AM 40.6333 -74.4042 270° West  Level FlightAware Approximate
04:29AM 40.6823 -74.7786 280° West  Level FlightAware Approximate
04:30AM 40.6892 -74.8322 280° West  Level FlightAware Approximate
04:31AM 40.6960 -74.8857 280° West  Level FlightAware Approximate
04:31AM 40.5667 -74.9500 272° West 151 174 4,000  Level Philadelphia TRACON
04:32AM 40.7008 -74.9411 273° West  Level FlightAware Approximate
04:32AM 40.5333 -75.0000 229° Southwest 172 198 4,000  Level Philadelphia TRACON
04:33AM 40.7026 -74.9953 273° West  Level FlightAware Approximate
04:33AM 40.5000 -75.0500 229° Southwest 160 184 4,000  Level Philadelphia TRACON
04:34AM 40.7044 -75.0496 272° West  Level FlightAware Approximate
04:34AM 40.4667 -75.0833 217° Southwest 161 185 4,000  Level Philadelphia TRACON
04:35AM 40.7061 -75.1038 272° West  Level FlightAware Approximate
04:35AM 40.4333 -75.1167 217° Southwest 160 184 4,000  Level Philadelphia TRACON
04:36AM 40.7079 -75.1581 272° West  Level FlightAware Approximate
04:36AM 40.4000 -75.1500 217° Southwest 160 184 4,000  Level Philadelphia TRACON
04:37AM 40.3667 -75.1833 217° Southwest 161 185 4,000  Level Philadelphia TRACON
04:38AM 40.3333 -75.2333 229° Southwest 159 183 4,000  Level Philadelphia TRACON
04:39AM 40.3000 -75.2667 217° Southwest 158 182 4,000  Level Philadelphia TRACON
04:40AM 40.2667 -75.3000 217° Southwest 158 182 4,000  Level Philadelphia TRACON
04:41AM 40.2333 -75.3333 217° Southwest 158 182 4,000  Level Philadelphia TRACON
04:42AM 40.2000 -75.3667 217° Southwest 160 184 4,000  Level Philadelphia TRACON
04:43AM 40.1667 -75.4167 229° Southwest 162 186 4,000  Level Philadelphia TRACON
04:44AM 40.1333 -75.4500 217° Southwest 161 185 4,000  Level Philadelphia TRACON
04:45AM 40.0833 -75.4833 207° Southwest 160 184 4,000  Level Philadelphia TRACON
04:46AM 40.0500 -75.5167 217° Southwest 163 188 4,000  Level Philadelphia TRACON
04:47AM 40.0167 -75.5500 217° Southwest 163 188 4,000  Level Philadelphia TRACON
04:48AM 39.9833 -75.6000 229° Southwest 161 185 4,000  Level Philadelphia TRACON
04:49AM 39.9500 -75.6333 217° Southwest 160 184 4,000  Level Philadelphia TRACON
04:50AM 39.9167 -75.6667 217° Southwest 160 184 4,000  Level Philadelphia TRACON
04:51AM 39.8833 -75.7167 229° Southwest 159 183 4,000  Level Philadelphia TRACON
04:52AM 39.8667 -75.7500 237° Southwest 158 182 4,000  Level Philadelphia TRACON
04:54AM 39.8360 -75.8077 235° Southwest  Level FlightAware Approximate
04:54AM 39.8167 -75.8500 235° Southwest 156 180 4,100  Level Potomac TRACON
04:55AM 39.7833 -75.8833 218° Southwest 158 182 4,100 -60 Level Potomac TRACON
04:56AM 39.7667 -75.9333 247° West 153 176 4,000 -60 Descending Potomac TRACON
04:57AM 39.7333 -75.9833 229° Southwest 161 185 4,000  Level Potomac TRACON
04:58AM 39.7000 -76.0167 218° Southwest 157 181 4,000  Level Potomac TRACON
04:59AM 39.6667 -76.0500 218° Southwest 155 178 4,000  Level Potomac TRACON
05:00AM 39.6333 -76.1000 229° Southwest 154 177 4,000  Level Potomac TRACON
05:01AM 39.6000 -76.1333 218° Southwest 155 178 4,000  Level Potomac TRACON
05:02AM 39.5667 -76.1833 229° Southwest 158 182 4,000  Level Potomac TRACON
05:03AM 39.5500 -76.2167 237° Southwest 158 182 4,000  Level Potomac TRACON
05:04AM 39.5167 -76.2500 218° Southwest 156 180 4,000  Level Potomac TRACON
05:05AM 39.4833 -76.2833 218° Southwest 158 182 4,000 -180 Level Potomac TRACON
05:06AM 39.4500 -76.3333 229° Southwest 164 189 3,700 -360 Descending Potomac TRACON
05:07AM 39.4167 -76.3667 218° Southwest 169 194 3,300 -360 Descending Potomac TRACON
05:08AM 39.3833 -76.4000 218° Southwest 170 196 3,000 -180 Descending Potomac TRACON
05:09AM 39.3500 -76.4500 229° Southwest 160 184 3,000  Level Potomac TRACON
05:10AM 39.3167 -76.4833 218° Southwest 160 184 3,000  Level Potomac TRACON
05:11AM 39.2833 -76.5167 218° Southwest 161 185 3,000 -240 Level Potomac TRACON
05:12AM 39.2500 -76.5500 218° Southwest 167 192 2,600 -540 Descending Potomac TRACON
05:13AM 39.2000 -76.6000 218° Southwest 173 199 2,000 -720 Descending Potomac TRACON
05:14AM 39.1667 -76.6333 218° Southwest 163 188 1,200 -840 Descending Potomac TRACON
05:16AM 39.1667 -76.6667 270° West  Level FlightAware Approximate
05:23AM 39.1754 -76.6683 270° West  Level Estimated
05:24AM 39.1754 -76.6683 270° West  Level Estimated
05:25AM 39.1754 -76.6683 270° West  Level Estimated
05:26AM 39.1754 -76.6683 270° West  Level Estimated